sensor_id;sensor_type;location;lat;lon;timestamp;P1;durP1;ratioP1;P2;durP2;ratioP2
36291;SDS011;22327;51.208;6.418;2023-06-10T00:01:44;7.72;;;6.10;;
36291;SDS011;22327;51.208;6.418;2023-06-10T00:04:47;6.68;;;5.90;;
36291;SDS011;22327;51.208;6.418;2023-06-10T00:07:48;6.75;;;6.15;;
36291;SDS011;22327;51.208;6.418;2023-06-10T00:10:49;6.10;;;5.50;;
36291;SDS011;22327;51.208;6.418;2023-06-10T00:13:50;7.13;;;6.43;;
36291;SDS011;22327;51.208;6.418;2023-06-10T00:16:50;7.88;;;6.38;;
36291;SDS011;22327;51.208;6.418;2023-06-10T00:19:52;8.48;;;5.93;;
36291;SDS011;22327;51.208;6.418;2023-06-10T00:22:53;7.35;;;6.72;;
36291;SDS011;22327;51.208;6.418;2023-06-10T00:25:53;6.63;;;6.03;;
36291;SDS011;22327;51.208;6.418;2023-06-10T00:28:54;6.93;;;6.20;;
36291;SDS011;22327;51.208;6.418;2023-06-10T00:31:54;8.73;;;6.75;;
36291;SDS011;22327;51.208;6.418;2023-06-10T00:34:57;6.60;;;6.10;;
36291;SDS011;22327;51.208;6.418;2023-06-10T00:37:57;7.20;;;6.50;;
36291;SDS011;22327;51.208;6.418;2023-06-10T00:40:58;6.88;;;6.18;;
36291;SDS011;22327;51.208;6.418;2023-06-10T00:43:59;6.55;;;5.97;;
36291;SDS011;22327;51.208;6.418;2023-06-10T00:46:59;7.32;;;6.55;;
36291;SDS011;22327;51.208;6.418;2023-06-10T00:50:00;7.45;;;6.55;;
36291;SDS011;22327;51.208;6.418;2023-06-10T00:53:02;7.43;;;6.03;;
36291;SDS011;22327;51.208;6.418;2023-06-10T00:56:03;7.13;;;6.32;;
36291;SDS011;22327;51.208;6.418;2023-06-10T00:59:03;7.20;;;6.60;;
36291;SDS011;22327;51.208;6.418;2023-06-10T01:02:04;7.00;;;6.40;;
36291;SDS011;22327;51.208;6.418;2023-06-10T01:05:05;6.78;;;6.07;;
36291;SDS011;22327;51.208;6.418;2023-06-10T01:08:10;6.55;;;5.95;;
36291;SDS011;22327;51.208;6.418;2023-06-10T01:11:28;7.45;;;6.68;;
36291;SDS011;22327;51.208;6.418;2023-06-10T01:14:35;6.97;;;6.25;;
36291;SDS011;22327;51.208;6.418;2023-06-10T01:17:39;6.72;;;6.13;;
36291;SDS011;22327;51.208;6.418;2023-06-10T01:20:59;10.20;;;6.68;;
36291;SDS011;22327;51.208;6.418;2023-06-10T01:23:59;9.27;;;6.43;;
36291;SDS011;22327;51.208;6.418;2023-06-10T01:27:00;7.43;;;6.57;;
36291;SDS011;22327;51.208;6.418;2023-06-10T01:30:14;7.22;;;6.53;;
36291;SDS011;22327;51.208;6.418;2023-06-10T01:33:18;8.63;;;6.80;;
36291;SDS011;22327;51.208;6.418;2023-06-10T01:36:25;6.70;;;6.00;;
36291;SDS011;22327;51.208;6.418;2023-06-10T01:39:26;7.28;;;6.57;;
36291;SDS011;22327;51.208;6.418;2023-06-10T01:42:28;11.68;;;6.63;;
36291;SDS011;22327;51.208;6.418;2023-06-10T01:45:29;7.15;;;6.45;;
36291;SDS011;22327;51.208;6.418;2023-06-10T01:48:29;7.35;;;6.65;;
36291;SDS011;22327;51.208;6.418;2023-06-10T01:51:30;7.38;;;6.68;;
36291;SDS011;22327;51.208;6.418;2023-06-10T01:54:31;7.40;;;6.70;;
36291;SDS011;22327;51.208;6.418;2023-06-10T01:57:34;7.28;;;6.22;;
36291;SDS011;22327;51.208;6.418;2023-06-10T02:00:34;7.32;;;6.50;;
36291;SDS011;22327;51.208;6.418;2023-06-10T02:03:35;7.70;;;6.57;;
36291;SDS011;22327;51.208;6.418;2023-06-10T02:06:36;6.82;;;6.22;;
36291;SDS011;22327;51.208;6.418;2023-06-10T02:09:37;7.18;;;5.97;;
36291;SDS011;22327;51.208;6.418;2023-06-10T02:12:38;6.85;;;6.25;;
36291;SDS011;22327;51.208;6.418;2023-06-10T02:15:38;6.97;;;6.28;;
36291;SDS011;22327;51.208;6.418;2023-06-10T02:18:40;8.40;;;6.60;;
36291;SDS011;22327;51.208;6.418;2023-06-10T02:21:43;9.32;;;6.45;;
36291;SDS011;22327;51.208;6.418;2023-06-10T02:24:43;7.10;;;6.18;;
36291;SDS011;22327;51.208;6.418;2023-06-10T02:27:44;6.70;;;6.10;;
36291;SDS011;22327;51.208;6.418;2023-06-10T02:30:44;6.88;;;6.20;;
36291;SDS011;22327;51.208;6.418;2023-06-10T02:33:46;7.38;;;6.40;;
36291;SDS011;22327;51.208;6.418;2023-06-10T02:36:47;6.28;;;5.75;;
36291;SDS011;22327;51.208;6.418;2023-06-10T02:39:51;8.48;;;6.93;;
36291;SDS011;22327;51.208;6.418;2023-06-10T02:42:51;7.35;;;6.65;;
36291;SDS011;22327;51.208;6.418;2023-06-10T02:45:52;7.30;;;6.55;;
36291;SDS011;22327;51.208;6.418;2023-06-10T02:48:52;7.07;;;6.18;;
36291;SDS011;22327;51.208;6.418;2023-06-10T02:51:53;7.15;;;6.38;;
36291;SDS011;22327;51.208;6.418;2023-06-10T02:54:54;7.03;;;6.32;;
36291;SDS011;22327;51.208;6.418;2023-06-10T02:57:55;7.10;;;6.40;;
36291;SDS011;22327;51.208;6.418;2023-06-10T03:00:55;7.45;;;6.70;;
36291;SDS011;22327;51.208;6.418;2023-06-10T03:03:56;7.57;;;6.78;;
36291;SDS011;22327;51.208;6.418;2023-06-10T03:06:56;6.68;;;6.07;;
36291;SDS011;22327;51.208;6.418;2023-06-10T03:09:57;6.95;;;6.32;;
36291;SDS011;22327;51.208;6.418;2023-06-10T03:12:57;7.60;;;6.90;;
36291;SDS011;22327;51.208;6.418;2023-06-10T03:15:58;7.25;;;6.55;;
36291;SDS011;22327;51.208;6.418;2023-06-10T03:18:59;7.20;;;6.50;;
36291;SDS011;22327;51.208;6.418;2023-06-10T03:22:09;8.10;;;7.30;;
36291;SDS011;22327;51.208;6.418;2023-06-10T03:25:11;7.18;;;6.50;;
36291;SDS011;22327;51.208;6.418;2023-06-10T03:28:13;8.48;;;7.50;;
36291;SDS011;22327;51.208;6.418;2023-06-10T03:31:14;7.25;;;6.55;;
36291;SDS011;22327;51.208;6.418;2023-06-10T03:34:16;7.25;;;6.55;;
36291;SDS011;22327;51.208;6.418;2023-06-10T03:37:17;11.20;;;6.45;;
36291;SDS011;22327;51.208;6.418;2023-06-10T03:40:17;7.00;;;6.30;;
36291;SDS011;22327;51.208;6.418;2023-06-10T03:43:18;8.00;;;6.53;;
36291;SDS011;22327;51.208;6.418;2023-06-10T03:46:18;8.20;;;6.68;;
36291;SDS011;22327;51.208;6.418;2023-06-10T03:49:19;7.40;;;6.70;;
36291;SDS011;22327;51.208;6.418;2023-06-10T03:52:19;7.15;;;6.45;;
36291;SDS011;22327;51.208;6.418;2023-06-10T03:55:20;7.45;;;6.30;;
36291;SDS011;22327;51.208;6.418;2023-06-10T03:58:21;6.22;;;5.60;;
36291;SDS011;22327;51.208;6.418;2023-06-10T04:01:22;6.63;;;6.03;;
36291;SDS011;22327;51.208;6.418;2023-06-10T04:04:23;6.45;;;5.85;;
36291;SDS011;22327;51.208;6.418;2023-06-10T04:07:24;6.53;;;5.65;;
36291;SDS011;22327;51.208;6.418;2023-06-10T04:10:25;6.82;;;6.22;;
36291;SDS011;22327;51.208;6.418;2023-06-10T04:13:25;6.65;;;5.95;;
36291;SDS011;22327;51.208;6.418;2023-06-10T04:16:26;5.75;;;5.25;;
36291;SDS011;22327;51.208;6.418;2023-06-10T04:19:27;6.35;;;5.75;;
36291;SDS011;22327;51.208;6.418;2023-06-10T04:22:28;5.82;;;5.32;;
36291;SDS011;22327;51.208;6.418;2023-06-10T04:25:29;5.95;;;5.35;;
36291;SDS011;22327;51.208;6.418;2023-06-10T04:28:29;6.72;;;5.65;;
36291;SDS011;22327;51.208;6.418;2023-06-10T04:31:30;6.60;;;5.30;;
36291;SDS011;22327;51.208;6.418;2023-06-10T04:34:36;5.70;;;5.20;;
36291;SDS011;22327;51.208;6.418;2023-06-10T04:37:38;8.90;;;5.75;;
36291;SDS011;22327;51.208;6.418;2023-06-10T04:40:39;5.85;;;5.35;;
36291;SDS011;22327;51.208;6.418;2023-06-10T04:43:40;5.72;;;5.22;;
36291;SDS011;22327;51.208;6.418;2023-06-10T04:46:41;6.72;;;5.65;;
36291;SDS011;22327;51.208;6.418;2023-06-10T04:49:41;5.70;;;5.10;;
36291;SDS011;22327;51.208;6.418;2023-06-10T04:52:42;5.97;;;5.47;;
36291;SDS011;22327;51.208;6.418;2023-06-10T04:55:42;6.45;;;5.78;;
36291;SDS011;22327;51.208;6.418;2023-06-10T04:58:43;5.80;;;5.30;;
36291;SDS011;22327;51.208;6.418;2023-06-10T05:01:44;6.57;;;5.60;;
36291;SDS011;22327;51.208;6.418;2023-06-10T05:04:44;7.03;;;6.20;;
36291;SDS011;22327;51.208;6.418;2023-06-10T05:07:45;5.95;;;5.35;;
36291;SDS011;22327;51.208;6.418;2023-06-10T05:10:46;6.20;;;5.65;;
36291;SDS011;22327;51.208;6.418;2023-06-10T05:13:46;6.10;;;5.22;;
36291;SDS011;22327;51.208;6.418;2023-06-10T05:16:47;6.25;;;5.53;;
36291;SDS011;22327;51.208;6.418;2023-06-10T05:19:48;6.28;;;5.68;;
36291;SDS011;22327;51.208;6.418;2023-06-10T05:22:49;7.80;;;6.03;;
36291;SDS011;22327;51.208;6.418;2023-06-10T05:25:49;7.20;;;5.90;;
36291;SDS011;22327;51.208;6.418;2023-06-10T05:28:50;6.03;;;5.53;;
36291;SDS011;22327;51.208;6.418;2023-06-10T05:31:50;6.70;;;5.60;;
36291;SDS011;22327;51.208;6.418;2023-06-10T05:34:51;7.20;;;6.50;;
36291;SDS011;22327;51.208;6.418;2023-06-10T05:37:52;6.35;;;5.30;;
36291;SDS011;22327;51.208;6.418;2023-06-10T05:40:52;7.85;;;5.60;;
36291;SDS011;22327;51.208;6.418;2023-06-10T05:43:53;5.78;;;5.28;;
36291;SDS011;22327;51.208;6.418;2023-06-10T05:46:53;7.15;;;5.30;;
36291;SDS011;22327;51.208;6.418;2023-06-10T05:49:54;6.45;;;5.85;;
36291;SDS011;22327;51.208;6.418;2023-06-10T05:52:54;6.95;;;6.03;;
36291;SDS011;22327;51.208;6.418;2023-06-10T05:55:55;5.80;;;5.30;;
36291;SDS011;22327;51.208;6.418;2023-06-10T05:58:57;6.88;;;5.55;;
36291;SDS011;22327;51.208;6.418;2023-06-10T06:01:58;5.55;;;5.05;;
36291;SDS011;22327;51.208;6.418;2023-06-10T06:04:58;6.47;;;5.63;;
36291;SDS011;22327;51.208;6.418;2023-06-10T06:07:59;5.63;;;5.22;;
36291;SDS011;22327;51.208;6.418;2023-06-10T06:10:59;6.00;;;4.90;;
36291;SDS011;22327;51.208;6.418;2023-06-10T06:14:00;6.07;;;5.40;;
36291;SDS011;22327;51.208;6.418;2023-06-10T06:17:00;5.88;;;5.35;;
36291;SDS011;22327;51.208;6.418;2023-06-10T06:20:01;6.53;;;5.45;;
36291;SDS011;22327;51.208;6.418;2023-06-10T06:23:03;5.47;;;4.88;;
36291;SDS011;22327;51.208;6.418;2023-06-10T06:26:03;6.65;;;5.30;;
36291;SDS011;22327;51.208;6.418;2023-06-10T06:29:04;5.60;;;5.10;;
36291;SDS011;22327;51.208;6.418;2023-06-10T06:32:05;6.40;;;5.72;;
36291;SDS011;22327;51.208;6.418;2023-06-10T06:35:05;5.78;;;4.93;;
36291;SDS011;22327;51.208;6.418;2023-06-10T06:38:07;5.82;;;4.63;;
36291;SDS011;22327;51.208;6.418;2023-06-10T06:41:08;5.18;;;4.78;;
36291;SDS011;22327;51.208;6.418;2023-06-10T06:44:08;7.03;;;4.63;;
36291;SDS011;22327;51.208;6.418;2023-06-10T06:47:09;5.15;;;4.60;;
36291;SDS011;22327;51.208;6.418;2023-06-10T06:50:10;5.05;;;4.50;;
36291;SDS011;22327;51.208;6.418;2023-06-10T06:53:10;5.18;;;4.50;;
36291;SDS011;22327;51.208;6.418;2023-06-10T06:56:11;5.55;;;5.05;;
36291;SDS011;22327;51.208;6.418;2023-06-10T06:59:12;5.68;;;5.07;;
36291;SDS011;22327;51.208;6.418;2023-06-10T07:02:14;5.35;;;4.47;;
36291;SDS011;22327;51.208;6.418;2023-06-10T07:05:14;4.43;;;4.13;;
36291;SDS011;22327;51.208;6.418;2023-06-10T07:08:15;5.03;;;4.60;;
36291;SDS011;22327;51.208;6.418;2023-06-10T07:11:15;4.88;;;4.35;;
36291;SDS011;22327;51.208;6.418;2023-06-10T07:14:17;5.38;;;4.53;;
36291;SDS011;22327;51.208;6.418;2023-06-10T07:17:18;4.88;;;4.32;;
36291;SDS011;22327;51.208;6.418;2023-06-10T07:20:18;4.68;;;4.28;;
36291;SDS011;22327;51.208;6.418;2023-06-10T07:23:19;5.00;;;4.60;;
36291;SDS011;22327;51.208;6.418;2023-06-10T07:26:21;5.40;;;4.18;;
36291;SDS011;22327;51.208;6.418;2023-06-10T07:29:22;4.50;;;4.00;;
36291;SDS011;22327;51.208;6.418;2023-06-10T07:32:22;4.78;;;4.30;;
36291;SDS011;22327;51.208;6.418;2023-06-10T07:35:23;5.47;;;4.97;;
36291;SDS011;22327;51.208;6.418;2023-06-10T07:38:24;4.47;;;4.10;;
36291;SDS011;22327;51.208;6.418;2023-06-10T07:41:25;5.50;;;4.03;;
36291;SDS011;22327;51.208;6.418;2023-06-10T07:44:26;5.35;;;4.65;;
36291;SDS011;22327;51.208;6.418;2023-06-10T07:47:27;4.93;;;4.30;;
36291;SDS011;22327;51.208;6.418;2023-06-10T07:50:27;5.38;;;4.75;;
36291;SDS011;22327;51.208;6.418;2023-06-10T07:53:28;5.82;;;4.43;;
36291;SDS011;22327;51.208;6.418;2023-06-10T07:56:28;6.22;;;5.05;;
36291;SDS011;22327;51.208;6.418;2023-06-10T07:59:28;5.70;;;4.85;;
36291;SDS011;22327;51.208;6.418;2023-06-10T08:02:29;6.18;;;4.60;;
36291;SDS011;22327;51.208;6.418;2023-06-10T08:05:30;5.93;;;4.80;;
36291;SDS011;22327;51.208;6.418;2023-06-10T08:08:31;4.70;;;4.30;;
36291;SDS011;22327;51.208;6.418;2023-06-10T08:11:31;5.05;;;4.65;;
36291;SDS011;22327;51.208;6.418;2023-06-10T08:14:32;5.13;;;4.40;;
36291;SDS011;22327;51.208;6.418;2023-06-10T08:17:32;4.75;;;4.35;;
36291;SDS011;22327;51.208;6.418;2023-06-10T08:20:33;5.25;;;4.28;;
36291;SDS011;22327;51.208;6.418;2023-06-10T08:23:33;5.10;;;4.63;;
36291;SDS011;22327;51.208;6.418;2023-06-10T08:26:34;5.20;;;4.47;;
36291;SDS011;22327;51.208;6.418;2023-06-10T08:29:35;7.28;;;4.68;;
36291;SDS011;22327;51.208;6.418;2023-06-10T08:32:35;4.25;;;3.88;;
36291;SDS011;22327;51.208;6.418;2023-06-10T08:35:36;5.38;;;4.82;;
36291;SDS011;22327;51.208;6.418;2023-06-10T08:38:37;6.68;;;4.85;;
36291;SDS011;22327;51.208;6.418;2023-06-10T08:41:41;5.18;;;4.78;;
36291;SDS011;22327;51.208;6.418;2023-06-10T08:44:43;4.65;;;4.25;;
36291;SDS011;22327;51.208;6.418;2023-06-10T08:47:46;5.18;;;4.70;;
36291;SDS011;22327;51.208;6.418;2023-06-10T08:50:51;5.88;;;4.65;;
36291;SDS011;22327;51.208;6.418;2023-06-10T08:53:57;5.10;;;4.60;;
36291;SDS011;22327;51.208;6.418;2023-06-10T08:57:05;4.78;;;4.38;;
36291;SDS011;22327;51.208;6.418;2023-06-10T09:00:06;5.43;;;4.78;;
36291;SDS011;22327;51.208;6.418;2023-06-10T09:03:08;5.50;;;4.90;;
36291;SDS011;22327;51.208;6.418;2023-06-10T09:06:09;5.30;;;4.80;;
36291;SDS011;22327;51.208;6.418;2023-06-10T09:09:10;4.80;;;4.30;;
36291;SDS011;22327;51.208;6.418;2023-06-10T09:12:13;5.70;;;4.93;;
36291;SDS011;22327;51.208;6.418;2023-06-10T09:15:14;4.65;;;4.15;;
36291;SDS011;22327;51.208;6.418;2023-06-10T09:18:17;4.85;;;4.13;;
36291;SDS011;22327;51.208;6.418;2023-06-10T09:21:17;5.90;;;4.97;;
36291;SDS011;22327;51.208;6.418;2023-06-10T09:24:18;5.07;;;4.43;;
36291;SDS011;22327;51.208;6.418;2023-06-10T09:27:18;5.15;;;4.32;;
36291;SDS011;22327;51.208;6.418;2023-06-10T09:30:32;5.15;;;4.20;;
36291;SDS011;22327;51.208;6.418;2023-06-10T09:33:36;5.50;;;5.00;;
36291;SDS011;22327;51.208;6.418;2023-06-10T09:36:39;5.13;;;4.72;;
36291;SDS011;22327;51.208;6.418;2023-06-10T09:39:40;6.30;;;4.60;;
36291;SDS011;22327;51.208;6.418;2023-06-10T09:42:42;5.28;;;4.78;;
36291;SDS011;22327;51.208;6.418;2023-06-10T09:45:42;5.40;;;4.80;;
36291;SDS011;22327;51.208;6.418;2023-06-10T09:48:44;5.38;;;4.90;;
36291;SDS011;22327;51.208;6.418;2023-06-10T09:51:52;5.43;;;4.53;;
36291;SDS011;22327;51.208;6.418;2023-06-10T09:54:58;4.60;;;4.22;;
36291;SDS011;22327;51.208;6.418;2023-06-10T09:58:00;5.38;;;4.88;;
36291;SDS011;22327;51.208;6.418;2023-06-10T10:01:04;5.07;;;4.57;;
36291;SDS011;22327;51.208;6.418;2023-06-10T10:04:12;6.82;;;4.90;;
36291;SDS011;22327;51.208;6.418;2023-06-10T10:07:13;5.22;;;4.75;;
36291;SDS011;22327;51.208;6.418;2023-06-10T10:10:14;6.18;;;5.65;;
36291;SDS011;22327;51.208;6.418;2023-06-10T10:13:16;5.93;;;5.28;;
36291;SDS011;22327;51.208;6.418;2023-06-10T10:16:36;5.80;;;5.25;;
36291;SDS011;22327;51.208;6.418;2023-06-10T10:19:46;6.40;;;5.13;;
36291;SDS011;22327;51.208;6.418;2023-06-10T10:22:48;8.73;;;5.72;;
36291;SDS011;22327;51.208;6.418;2023-06-10T10:25:51;5.97;;;5.43;;
36291;SDS011;22327;51.208;6.418;2023-06-10T10:28:57;6.40;;;4.97;;
36291;SDS011;22327;51.208;6.418;2023-06-10T10:32:07;6.18;;;5.10;;
36291;SDS011;22327;51.208;6.418;2023-06-10T10:35:17;5.55;;;5.05;;
36291;SDS011;22327;51.208;6.418;2023-06-10T10:38:21;8.45;;;5.93;;
36291;SDS011;22327;51.208;6.418;2023-06-10T10:41:23;5.45;;;4.95;;
36291;SDS011;22327;51.208;6.418;2023-06-10T10:44:26;5.80;;;4.93;;
36291;SDS011;22327;51.208;6.418;2023-06-10T10:47:27;6.05;;;5.45;;
36291;SDS011;22327;51.208;6.418;2023-06-10T10:50:29;7.85;;;4.93;;
36291;SDS011;22327;51.208;6.418;2023-06-10T10:53:34;9.10;;;5.65;;
36291;SDS011;22327;51.208;6.418;2023-06-10T10:56:36;6.43;;;4.88;;
36291;SDS011;22327;51.208;6.418;2023-06-10T10:59:44;6.38;;;4.88;;
36291;SDS011;22327;51.208;6.418;2023-06-10T11:06:03;5.22;;;4.80;;
36291;SDS011;22327;51.208;6.418;2023-06-10T11:09:25;6.88;;;5.38;;
36291;SDS011;22327;51.208;6.418;2023-06-10T11:15:49;5.03;;;4.53;;
36291;SDS011;22327;51.208;6.418;2023-06-10T11:18:53;5.25;;;4.72;;
36291;SDS011;22327;51.208;6.418;2023-06-10T11:21:57;6.10;;;4.65;;
36291;SDS011;22327;51.208;6.418;2023-06-10T11:25:02;5.30;;;4.70;;
36291;SDS011;22327;51.208;6.418;2023-06-10T11:28:02;5.63;;;4.82;;
36291;SDS011;22327;51.208;6.418;2023-06-10T11:31:33;5.18;;;3.90;;
36291;SDS011;22327;51.208;6.418;2023-06-10T11:34:53;5.23;;;4.80;;
36291;SDS011;22327;51.208;6.418;2023-06-10T11:37:54;5.88;;;4.32;;
36291;SDS011;22327;51.208;6.418;2023-06-10T11:40:55;5.00;;;4.50;;
36291;SDS011;22327;51.208;6.418;2023-06-10T11:43:56;7.15;;;4.95;;
36291;SDS011;22327;51.208;6.418;2023-06-10T11:47:17;4.65;;;4.25;;
36291;SDS011;22327;51.208;6.418;2023-06-10T11:50:27;6.03;;;4.80;;
36291;SDS011;22327;51.208;6.418;2023-06-10T11:53:28;5.22;;;4.70;;
36291;SDS011;22327;51.208;6.418;2023-06-10T11:56:30;5.72;;;4.82;;
36291;SDS011;22327;51.208;6.418;2023-06-10T11:59:31;6.32;;;4.38;;
36291;SDS011;22327;51.208;6.418;2023-06-10T12:02:32;5.68;;;5.03;;
36291;SDS011;22327;51.208;6.418;2023-06-10T12:05:33;5.07;;;4.60;;
36291;SDS011;22327;51.208;6.418;2023-06-10T12:08:34;5.97;;;5.10;;
36291;SDS011;22327;51.208;6.418;2023-06-10T12:11:42;5.30;;;4.80;;
36291;SDS011;22327;51.208;6.418;2023-06-10T12:14:59;6.70;;;4.38;;
36291;SDS011;22327;51.208;6.418;2023-06-10T12:18:03;5.15;;;4.65;;
36291;SDS011;22327;51.208;6.418;2023-06-10T12:21:03;9.70;;;4.60;;
36291;SDS011;22327;51.208;6.418;2023-06-10T12:24:19;5.75;;;4.95;;
36291;SDS011;22327;51.208;6.418;2023-06-10T12:27:20;5.53;;;5.03;;
36291;SDS011;22327;51.208;6.418;2023-06-10T12:30:22;5.40;;;4.60;;
36291;SDS011;22327;51.208;6.418;2023-06-10T12:33:24;6.47;;;5.47;;
36291;SDS011;22327;51.208;6.418;2023-06-10T12:36:24;6.18;;;4.43;;
36291;SDS011;22327;51.208;6.418;2023-06-10T12:39:25;5.32;;;4.82;;
36291;SDS011;22327;51.208;6.418;2023-06-10T12:42:26;4.70;;;4.32;;
36291;SDS011;22327;51.208;6.418;2023-06-10T12:45:28;4.78;;;4.38;;
36291;SDS011;22327;51.208;6.418;2023-06-10T12:48:29;6.27;;;4.60;;
36291;SDS011;22327;51.208;6.418;2023-06-10T12:51:30;6.63;;;4.95;;
36291;SDS011;22327;51.208;6.418;2023-06-10T12:54:30;5.38;;;4.93;;
36291;SDS011;22327;51.208;6.418;2023-06-10T12:57:31;5.32;;;4.78;;
36291;SDS011;22327;51.208;6.418;2023-06-10T13:00:32;8.18;;;5.30;;
36291;SDS011;22327;51.208;6.418;2023-06-10T13:03:34;5.50;;;5.00;;
36291;SDS011;22327;51.208;6.418;2023-06-10T13:06:35;5.97;;;4.75;;
36291;SDS011;22327;51.208;6.418;2023-06-10T13:09:38;6.85;;;5.75;;
36291;SDS011;22327;51.208;6.418;2023-06-10T13:12:39;8.68;;;4.53;;
36291;SDS011;22327;51.208;6.418;2023-06-10T13:15:41;5.70;;;5.20;;
36291;SDS011;22327;51.208;6.418;2023-06-10T13:18:41;6.32;;;4.70;;
36291;SDS011;22327;51.208;6.418;2023-06-10T13:21:42;6.45;;;4.90;;
36291;SDS011;22327;51.208;6.418;2023-06-10T13:24:43;4.93;;;4.53;;
36291;SDS011;22327;51.208;6.418;2023-06-10T13:27:43;5.07;;;4.68;;
36291;SDS011;22327;51.208;6.418;2023-06-10T13:30:44;7.95;;;5.10;;
36291;SDS011;22327;51.208;6.418;2023-06-10T13:33:44;5.45;;;4.95;;
36291;SDS011;22327;51.208;6.418;2023-06-10T13:36:45;5.88;;;4.88;;
36291;SDS011;22327;51.208;6.418;2023-06-10T13:39:45;7.03;;;4.50;;
36291;SDS011;22327;51.208;6.418;2023-06-10T13:42:50;5.20;;;4.70;;
36291;SDS011;22327;51.208;6.418;2023-06-10T13:45:52;5.70;;;5.05;;
36291;SDS011;22327;51.208;6.418;2023-06-10T13:48:53;11.98;;;5.18;;
36291;SDS011;22327;51.208;6.418;2023-06-10T13:51:53;5.25;;;4.68;;
36291;SDS011;22327;51.208;6.418;2023-06-10T13:54:54;5.85;;;5.25;;
36291;SDS011;22327;51.208;6.418;2023-06-10T13:57:54;5.75;;;4.82;;
36291;SDS011;22327;51.208;6.418;2023-06-10T14:00:55;4.88;;;4.47;;
36291;SDS011;22327;51.208;6.418;2023-06-10T14:03:56;5.55;;;5.03;;
36291;SDS011;22327;51.208;6.418;2023-06-10T14:06:56;5.32;;;4.85;;
36291;SDS011;22327;51.208;6.418;2023-06-10T14:09:57;5.50;;;5.00;;
36291;SDS011;22327;51.208;6.418;2023-06-10T14:12:58;5.97;;;5.38;;
36291;SDS011;22327;51.208;6.418;2023-06-10T14:16:00;5.20;;;4.70;;
36291;SDS011;22327;51.208;6.418;2023-06-10T14:19:02;5.70;;;4.57;;
36291;SDS011;22327;51.208;6.418;2023-06-10T14:22:03;5.18;;;4.68;;
36291;SDS011;22327;51.208;6.418;2023-06-10T14:25:04;5.85;;;5.30;;
36291;SDS011;22327;51.208;6.418;2023-06-10T14:28:04;6.70;;;4.60;;
36291;SDS011;22327;51.208;6.418;2023-06-10T14:31:05;5.30;;;4.75;;
36291;SDS011;22327;51.208;6.418;2023-06-10T14:34:07;5.50;;;5.00;;
36291;SDS011;22327;51.208;6.418;2023-06-10T14:37:08;5.43;;;4.93;;
36291;SDS011;22327;51.208;6.418;2023-06-10T14:40:08;5.00;;;4.45;;
36291;SDS011;22327;51.208;6.418;2023-06-10T14:43:09;5.07;;;4.57;;
36291;SDS011;22327;51.208;6.418;2023-06-10T14:46:10;5.07;;;4.55;;
36291;SDS011;22327;51.208;6.418;2023-06-10T14:49:10;5.70;;;5.20;;
36291;SDS011;22327;51.208;6.418;2023-06-10T14:52:11;5.78;;;5.18;;
36291;SDS011;22327;51.208;6.418;2023-06-10T14:55:12;5.70;;;5.20;;
36291;SDS011;22327;51.208;6.418;2023-06-10T14:58:12;7.03;;;5.22;;
36291;SDS011;22327;51.208;6.418;2023-06-10T15:01:13;5.30;;;4.80;;
36291;SDS011;22327;51.208;6.418;2023-06-10T15:04:13;5.07;;;4.57;;
36291;SDS011;22327;51.208;6.418;2023-06-10T15:07:14;6.63;;;5.10;;
36291;SDS011;22327;51.208;6.418;2023-06-10T15:10:15;5.85;;;5.18;;
36291;SDS011;22327;51.208;6.418;2023-06-10T15:13:16;7.15;;;4.75;;
36291;SDS011;22327;51.208;6.418;2023-06-10T15:16:16;5.78;;;5.25;;
36291;SDS011;22327;51.208;6.418;2023-06-10T15:19:17;4.97;;;4.47;;
36291;SDS011;22327;51.208;6.418;2023-06-10T15:22:17;5.10;;;4.70;;
36291;SDS011;22327;51.208;6.418;2023-06-10T15:25:18;5.03;;;4.63;;
36291;SDS011;22327;51.208;6.418;2023-06-10T15:28:18;5.15;;;4.65;;
36291;SDS011;22327;51.208;6.418;2023-06-10T15:31:19;6.18;;;4.70;;
36291;SDS011;22327;51.208;6.418;2023-06-10T15:34:19;5.10;;;4.68;;
36291;SDS011;22327;51.208;6.418;2023-06-10T15:37:20;5.43;;;4.60;;
36291;SDS011;22327;51.208;6.418;2023-06-10T15:40:23;6.85;;;4.68;;
36291;SDS011;22327;51.208;6.418;2023-06-10T15:43:23;5.85;;;4.90;;
36291;SDS011;22327;51.208;6.418;2023-06-10T15:46:25;6.15;;;4.68;;
36291;SDS011;22327;51.208;6.418;2023-06-10T15:49:26;5.40;;;4.90;;
36291;SDS011;22327;51.208;6.418;2023-06-10T15:52:26;5.40;;;4.88;;
36291;SDS011;22327;51.208;6.418;2023-06-10T15:55:27;5.30;;;4.78;;
36291;SDS011;22327;51.208;6.418;2023-06-10T15:58:29;7.93;;;5.30;;
36291;SDS011;22327;51.208;6.418;2023-06-10T16:01:29;6.03;;;5.32;;
36291;SDS011;22327;51.208;6.418;2023-06-10T16:04:30;5.70;;;4.90;;
36291;SDS011;22327;51.208;6.418;2023-06-10T16:07:30;5.53;;;4.97;;
36291;SDS011;22327;51.208;6.418;2023-06-10T16:10:31;5.53;;;4.90;;
36291;SDS011;22327;51.208;6.418;2023-06-10T16:13:31;5.07;;;4.68;;
36291;SDS011;22327;51.208;6.418;2023-06-10T16:16:32;5.85;;;5.18;;
36291;SDS011;22327;51.208;6.418;2023-06-10T16:19:33;6.45;;;5.15;;
36291;SDS011;22327;51.208;6.418;2023-06-10T16:22:33;5.72;;;5.13;;
36291;SDS011;22327;51.208;6.418;2023-06-10T16:25:33;8.50;;;4.80;;
36291;SDS011;22327;51.208;6.418;2023-06-10T16:28:34;6.78;;;5.20;;
36291;SDS011;22327;51.208;6.418;2023-06-10T16:31:35;5.95;;;4.95;;
36291;SDS011;22327;51.208;6.418;2023-06-10T16:34:35;8.00;;;4.47;;
36291;SDS011;22327;51.208;6.418;2023-06-10T16:37:36;5.80;;;4.93;;
36291;SDS011;22327;51.208;6.418;2023-06-10T16:40:36;5.82;;;5.25;;
36291;SDS011;22327;51.208;6.418;2023-06-10T16:43:37;5.47;;;4.50;;
36291;SDS011;22327;51.208;6.418;2023-06-10T16:46:37;5.32;;;4.82;;
36291;SDS011;22327;51.208;6.418;2023-06-10T16:49:38;6.93;;;5.00;;
36291;SDS011;22327;51.208;6.418;2023-06-10T16:52:38;6.50;;;4.90;;
36291;SDS011;22327;51.208;6.418;2023-06-10T16:55:39;4.85;;;4.38;;
36291;SDS011;22327;51.208;6.418;2023-06-10T16:58:41;5.28;;;4.78;;
36291;SDS011;22327;51.208;6.418;2023-06-10T17:01:41;6.32;;;4.85;;
36291;SDS011;22327;51.208;6.418;2023-06-10T17:04:42;5.68;;;4.30;;
36291;SDS011;22327;51.208;6.418;2023-06-10T17:07:42;5.38;;;4.88;;
36291;SDS011;22327;51.208;6.418;2023-06-10T17:10:43;6.50;;;4.68;;
36291;SDS011;22327;51.208;6.418;2023-06-10T17:13:44;5.60;;;4.40;;
36291;SDS011;22327;51.208;6.418;2023-06-10T17:16:44;4.78;;;4.20;;
36291;SDS011;22327;51.208;6.418;2023-06-10T17:19:45;4.78;;;4.38;;
36291;SDS011;22327;51.208;6.418;2023-06-10T17:22:45;4.90;;;4.50;;
36291;SDS011;22327;51.208;6.418;2023-06-10T17:25:46;5.60;;;4.15;;
36291;SDS011;22327;51.208;6.418;2023-06-10T17:28:46;4.93;;;4.43;;
36291;SDS011;22327;51.208;6.418;2023-06-10T17:31:47;5.43;;;4.57;;
36291;SDS011;22327;51.208;6.418;2023-06-10T17:34:48;6.65;;;4.50;;
36291;SDS011;22327;51.208;6.418;2023-06-10T17:37:48;5.53;;;4.65;;
36291;SDS011;22327;51.208;6.418;2023-06-10T17:40:49;5.97;;;4.18;;
36291;SDS011;22327;51.208;6.418;2023-06-10T17:43:49;4.88;;;4.25;;
36291;SDS011;22327;51.208;6.418;2023-06-10T17:46:50;5.38;;;4.45;;
36291;SDS011;22327;51.208;6.418;2023-06-10T17:49:51;5.30;;;4.60;;
36291;SDS011;22327;51.208;6.418;2023-06-10T17:52:52;5.88;;;4.43;;
36291;SDS011;22327;51.208;6.418;2023-06-10T17:55:52;5.28;;;4.50;;
36291;SDS011;22327;51.208;6.418;2023-06-10T17:58:53;4.57;;;4.07;;
36291;SDS011;22327;51.208;6.418;2023-06-10T18:01:53;4.97;;;4.47;;
36291;SDS011;22327;51.208;6.418;2023-06-10T18:04:54;5.43;;;4.00;;
36291;SDS011;22327;51.208;6.418;2023-06-10T18:07:54;4.63;;;4.22;;
36291;SDS011;22327;51.208;6.418;2023-06-10T18:10:55;4.90;;;4.50;;
36291;SDS011;22327;51.208;6.418;2023-06-10T18:13:56;6.40;;;4.18;;
36291;SDS011;22327;51.208;6.418;2023-06-10T18:16:56;4.50;;;3.85;;
36291;SDS011;22327;51.208;6.418;2023-06-10T18:19:57;4.40;;;4.10;;
36291;SDS011;22327;51.208;6.418;2023-06-10T18:22:57;5.22;;;4.68;;